Latest Coastal Weather Observations for Swan Island

IDT60701

Issued at 7:11 pm EST Wednesday 25 May 2016 (issued every 10 minutes, with the page automatically refreshed every 10 minutes)

About coastal observations | Map of coastal stations | Coastal observations for TAS | Marine services | Other Formats
Station Details ID: 092123 Name: SWAN ISLAND Lat: -40.73 Lon: 148.12 Height: 15.0 m
Data from the previous 72 hours. | See also: Recent months at Swan Island
Date/Time
EST
Temp

°C
Wind Pressure Rain
since 9am
mm
Weather Cloud Vis
km
Sea
Height
m
Swell
Dir
 
Speed
knots
Gust
knots
hPa Trend Height
m
Period
s
Dir
25/07:00pm 14.8 NW 17 21 1007.1 - 0.0 - - - - - - -
25/06:30pm 14.5 WNW 16 23 1007.3 - 0.0 - - - - - - -
25/06:00pm 14.4 NW 16 21 1007.5 - 0.0 - - - - - - -
25/05:30pm 14.3 NW 10 14 1007.4 - 0.0 - - - - - - -
25/05:00pm 14.1 NW 12 17 1007.8 - 0.0 - - - - - - -
25/04:30pm 14.1 NW 12 16 1007.9 - 0.0 - - - - - - -
25/04:00pm 14.1 WNW 9 11 1008.2 - 0.0 - - - - - - -
25/03:30pm 14.4 NW 9 13 1008.4 - 0.0 - - - - - - -
25/03:00pm 13.7 WNW 5 8 1008.8 - 0.0 - - - - - - -
25/02:30pm 13.8 W 5 7 1008.8 - 0.0 - - - - - - -
25/02:00pm 13.2 W 7 9 1009.4 - 0.0 - - - - - - -
25/01:30pm 13.3 W 8 11 1009.8 - 0.0 - - - - - - -
25/01:00pm 13.7 W 9 11 1010.0 - 0.0 - - - - - - -
25/12:30pm 13.1 W 7 9 1010.2 - 0.0 - - - - - - -
25/12:00pm 12.3 W 5 8 1010.5 - 0.0 - - - - - - -
25/11:30am 11.9 WNW 6 8 1011.3 - 0.0 - - - - - - -
25/11:00am 12.1 W 4 7 1011.7 - 0.0 - - - - - - -
25/10:30am 11.2 W 7 9 1012.4 - 0.0 - - - - - - -
25/10:00am 10.8 W 8 11 1013.1 - 0.0 - - - - - - -
25/09:30am 11.2 W 5 8 1013.2 - 0.0 - - - - - - -
25/09:00am 10.0 W 4 6 1013.3 - 0.0 - - - - - - -
25/08:30am 8.7 W 3 5 1013.6 - 0.0 - - - - - - -
25/08:00am 8.4 SSE 2 3 1013.2 - 0.0 - - - - - - -
25/07:30am 7.8 SE 2 2 1013.2 - 0.0 - - - - - - -
25/07:00am 7.3 SE 3 4 1013.2 - 0.0 - - - - - - -
25/06:30am 7.3 SSE 4 5 1013.4 - 0.0 - - - - - - -
25/06:00am 7.1 S 4 5 1013.7 - 0.0 - - - - - - -
25/05:30am 7.2 S 5 5 1014.2 - 0.0 - - - - - - -
25/05:00am 7.0 SSW 5 6 1014.5 - 0.0 - - - - - - -
25/04:30am 7.3 S 5 6 1014.3 - 0.0 - - - - - - -
25/04:00am 7.2 SSE 5 7 1014.0 - 0.0 - - - - - - -
25/03:30am 7.5 SSE 6 8 1014.0 - 0.0 - - - - - - -
25/03:00am 7.2 SSE 5 7 1014.0 - 0.0 - - - - - - -
25/02:30am 6.9 S 5 7 1014.6 - 0.0 - - - - - - -
25/02:00am 7.1 S 5 7 1014.7 - 0.0 - - - - - - -
25/01:30am 7.7 S 5 8 1014.8 - 0.0 - - - - - - -
25/01:00am 8.1 SSE 7 9 1015.1 - 0.0 - - - - - - -
25/12:30am 8.5 SSE 6 8 1015.1 - 0.0 - - - - - - -
25/12:00am 8.5 SSE 6 7 1015.3 - 0.0 - - - - - - -
 
Date/Time
EST
Temp

°C
Wind Pressure Rain
since 9am
mm
Weather Cloud Vis
km
Sea
Height
m
Swell
Dir
 
Speed
knots
Gust
knots
hPa Trend Height
m
Period
s
Dir
24/11:30pm 8.4 S 4 6 1015.5 - 0.0 - - - - - - -
24/11:00pm 9.0 SSE 5 7 1015.6 - 0.0 - - - - - - -
24/10:30pm 9.5 SSE 6 9 1015.7 - 0.0 - - - - - - -
24/10:00pm 9.8 SSE 7 10 1015.6 - 0.0 - - - - - - -
24/09:30pm 9.7 SSE 6 10 1015.8 - 0.0 - - - - - - -
24/09:00pm 9.6 SSE 9 11 1015.7 - 0.0 - - - - - - -
24/08:30pm 9.5 SSE 7 10 1015.5 - 0.0 - - - - - - -
24/08:00pm 9.8 SSW 4 7 1015.4 - 0.0 - - - - - - -
24/07:30pm 9.5 SW 5 8 1015.6 - 0.0 - - - - - - -
24/07:00pm 9.7 SW 6 7 1015.2 - 0.0 - - - - - - -
24/06:30pm 10.0 WSW 6 8 1015.1 - 0.0 - - - - - - -
24/06:00pm 10.4 WSW 7 11 1014.9 - 0.0 - - - - - - -
24/05:30pm 10.8 WSW 7 10 1014.7 - 0.0 - - - - - - -
24/05:00pm 11.2 WSW 8 13 1014.3 - 0.0 - - - - - - -
24/04:30pm 12.0 WSW 9 15 1014.1 - 0.0 - - - - - - -
24/04:00pm 12.8 WSW 10 16 1013.9 - 0.0 - - - - - - -
24/03:30pm 13.3 WSW 10 15 1013.8 - 0.0 - - - - - - -
24/03:00pm 12.4 WSW 11 16 1013.4 - 0.0 - - - - - - -
24/02:30pm 12.8 WSW 12 17 1013.3 - 0.0 - - - - - - -
24/02:00pm 14.0 WSW 11 17 1013.1 - 0.0 - - - - - - -
24/01:30pm 14.3 WSW 10 16 1012.8 - 0.0 - - - - - - -
24/01:00pm 14.3 W 10 14 1012.9 - 0.0 - - - - - - -
24/12:30pm 13.5 W 10 13 1013.1 - 0.0 - - - - - - -
24/12:00pm 13.0 W 9 13 1013.4 - 0.0 - - - - - - -
24/11:30am 12.4 W 11 17 1013.4 - 0.0 - - - - - - -
24/11:00am 12.1 WSW 11 16 1013.8 - 0.0 - - - - - - -
24/10:30am 11.7 W 11 16 1013.9 - 0.0 - - - - - - -
24/10:00am 11.4 W 8 13 1013.8 - 0.0 - - - - - - -
24/09:30am 10.5 WSW 8 13 1013.7 - 0.0 - - - - - - -
24/09:00am 9.6 WSW 13 18 1013.3 - 3.0 - - - - - - -
24/08:30am 8.9 WSW 11 16 1013.0 - 3.0 - - - - - - -
24/08:00am 8.4 WSW 9 13 1012.7 - 3.0 - - - - - - -
24/07:30am 7.7 WSW 6 10 1012.3 - 3.0 - - - - - - -
24/07:00am 7.5 SW 6 10 1012.0 - 3.0 - - - - - - -
24/06:30am 7.8 SW 5 8 1011.9 - 3.0 - - - - - - -
24/06:00am 8.1 SW 8 12 1011.7 - 3.0 - - - - - - -
24/05:30am 8.6 SW 7 10 1011.4 - 3.0 - - - - - - -
24/05:00am 9.2 WSW 8 12 1011.0 - 3.0 - - - - - - -
24/04:30am 9.3 WSW 10 15 1011.1 - 3.0 - - - - - - -
24/04:00am 9.7 WSW 10 17 1011.1 - 3.0 - - - - - - -
24/03:30am 9.6 WSW 9 14 1011.3 - 3.0 - - - - - - -
24/03:00am 9.3 SW 6 9 1011.7 - 3.0 - - - - - - -
24/02:30am 9.0 SW 5 8 1011.9 - 3.0 - - - - - - -
24/02:00am 8.9 SW 4 5 1012.0 - 3.0 - - - - - - -
24/01:30am 9.7 SSW 5 8 1011.8 - 3.0 - - - - - - -
24/01:00am 10.4 WSW 9 13 1011.7 - 3.0 - - - - - - -
24/12:30am 10.3 WSW 9 16 1011.9 - 3.0 - - - - - - -
24/12:00am 10.5 WSW 12 18 1012.0 - 3.0 - - - - - - -
 
Date/Time
EST
Temp

°C
Wind Pressure Rain
since 9am
mm
Weather Cloud Vis
km
Sea
Height
m
Swell
Dir
 
Speed
knots
Gust
knots
hPa Trend Height
m
Period
s
Dir
23/11:30pm 10.4 WSW 11 19 1011.8 - 3.0 - - - - - - -
23/11:00pm 10.5 WSW 14 21 1011.7 - 3.0 - - - - - - -
23/10:30pm 10.2 WSW 13 20 1011.5 - 3.0 - - - - - - -
23/10:00pm 10.2 WSW 13 24 1011.6 - 3.0 - - - - - - -
23/09:30pm 10.1 WSW 15 23 1011.5 - 3.0 - - - - - - -
23/09:00pm 10.2 WSW 15 23 1011.1 - 3.0 - - - - - - -
23/08:30pm 10.6 WSW 18 27 1010.5 - 3.0 - - - - - - -
23/08:00pm 10.6 WSW 22 34 1009.7 - 3.0 - - - - - - -
23/07:30pm 10.7 WSW 21 33 1009.8 - 3.0 - - - - - - -
23/07:00pm 11.1 WSW 19 31 1009.4 - 3.0 - - - - - - -
23/06:30pm 11.5 WSW 21 32 1008.7 - 3.0 - - - - - - -
23/06:01pm 11.6 WSW 24 35 1008.2 - 3.0 - - - - - - -
23/06:00pm 11.6 WSW 25 35 1008.1 - 3.0 - - - - - - -
23/05:30pm 11.8 WSW 24 36 1007.7 - 3.0 - - - - - - -
23/05:00pm 12.0 W 26 39 1007.2 - 3.0 - - - - - - -
23/04:30pm 12.2 W 27 37 1006.9 - 3.0 - - - - - - -
23/04:00pm 12.5 W 30 43 1006.5 - 3.0 - - - - - - -
23/03:30pm 12.8 W 32 44 1005.9 - 3.0 - - - - - - -
23/03:00pm 12.9 W 32 42 1005.4 - 3.0 - - - - - - -
23/02:30pm 13.4 W 33 45 1005.1 - 3.0 - - - - - - -
23/02:00pm 13.2 W 32 45 1004.6 - 3.0 - - - - - - -
23/01:30pm 13.2 W 29 46 1004.3 - 3.0 - - - - - - -
23/01:00pm 13.5 W 26 40 1004.2 - 3.0 - - - - - - -
23/12:30pm 13.4 W 26 37 1004.0 - 3.0 - - - - - - -
23/12:00pm 12.4 W 26 37 1003.7 - 3.0 Recent precip. - - - - - -
23/11:30am 12.0 WNW 23 37 1004.1 - 3.0 - - - - - - -
23/11:00am 12.1 WNW 26 40 1004.6 - 2.4 - - - - - - -
23/10:46am 13.4 WNW 22 32 1004.8 - 0.2 - - - - - - -
23/10:30am 13.5 WNW 19 26 1005.0 - 0.0 - - - - - - -
23/10:00am 13.0 WNW 18 28 1005.1 - 0.0 - - - - - - -
23/09:41am 13.3 WNW 18 28 1005.4 - 0.0 - - - - - - -
23/09:30am 13.4 WNW 18 27 1005.3 - 0.0 - - - - - - -
23/09:00am 12.5 WNW 15 24 1005.3 - 8.0 Recent precip. - - - - - -
23/08:30am 13.1 WNW 15 20 1005.7 - 8.0 - - - - - - -
23/08:00am 12.7 WNW 11 15 1006.0 - 7.8 - - - - - - -
23/07:30am 13.2 WNW 11 16 1005.6 - 4.8 - - - - - - -
23/07:00am 12.8 WNW 13 17 1005.4 - 4.2 - - - - - - -
23/06:30am 12.8 W 10 16 1005.6 - 4.0 - - - - - - -
23/06:00am 12.7 W 15 22 1006.5 - 3.4 Recent precip. - - - - - -
23/05:35am 12.6 W 16 26 1006.6 - 3.0 - - - - - - -
23/05:30am 12.8 W 17 26 1006.7 - 3.0 - - - - - - -
23/05:00am 13.1 W 25 38 1006.1 - 1.8 - - - - - - -
23/04:44am 13.8 W 22 34 1005.5 - 1.2 - - - - - - -
23/04:38am 15.2 WNW 23 32 1005.5 - 1.0 - - - - - - -
23/04:31am 16.2 NW 22 32 1005.3 - 1.0 - - - - - - -
23/04:30am 16.1 NW 21 30 1005.2 - 1.0 - - - - - - -
23/04:28am 16.0 NW 20 30 1005.2 - 1.0 - - - - - - -
23/04:00am 16.0 NNW 14 17 1005.1 - 0.4 - - - - - - -
23/03:30am 16.0 NNW 12 19 1005.8 - 0.2 - - - - - - -
23/03:00am 15.9 NW 10 11 1006.7 - 0.0 - - - - - - -
23/02:30am 16.5 WNW 12 17 1007.6 - 0.0 - - - - - - -
23/02:00am 15.9 NNW 9 12 1007.6 - 0.0 - - - - - - -
23/01:30am 16.0 N 13 15 1007.2 - 0.0 - - - - - - -
23/01:00am 15.9 N 12 14 1007.7 - 0.0 - - - - - - -
23/12:30am 15.7 N 11 13 1008.2 - 0.0 - - - - - - -
23/12:00am 15.8 N 12 14 1008.9 - 0.0 - - - - - - -
 
Date/Time
EST
Temp

°C
Wind Pressure Rain
since 9am
mm
Weather Cloud Vis
km
Sea
Height
m
Swell
Dir
 
Speed
knots
Gust
knots
hPa Trend Height
m
Period
s
Dir
22/11:30pm 15.8 N 14 18 1009.5 - 0.0 - - - - - - -
22/11:00pm 15.9 N 14 17 1009.8 - 0.0 - - - - - - -
22/10:30pm 16.0 N 14 17 1010.2 - 0.0 - - - - - - -
22/10:00pm 15.6 NNE 8 11 1010.8 - 0.0 - - - - - - -
22/09:30pm 15.6 NNE 8 10 1011.1 - 0.0 - - - - - - -
22/09:00pm 14.7 NNE 7 11 1011.5 - 0.0 - - - - - - -
22/08:30pm 15.1 NNE 7 9 1012.3 - 0.0 - - - - - - -
22/08:00pm 14.7 N 4 7 1012.9 - 0.0 - - - - - - -
22/07:30pm 14.8 N 5 8 1013.2 - 0.0 - - - - - - -

Other Formats:

Comma delimited format used in spreadsheet applications
http://www.bom.gov.au/fwo/IDT60701/IDT60701.95985.axf

JavaScript Object Notation format (JSON) in row-major order
http://www.bom.gov.au/fwo/IDT60701/IDT60701.95985.json